createdAt,value
2018-04-10T00:02:22.910Z,34.87
2018-04-10T00:04:52.180Z,36.43
2018-04-10T00:07:21.405Z,36.00
2018-04-10T00:09:50.602Z,36.57
2018-04-10T00:12:19.905Z,35.07
2018-04-10T00:14:49.118Z,36.17
2018-04-10T00:17:18.336Z,36.27
2018-04-10T00:19:47.568Z,35.40
2018-04-10T00:22:16.747Z,36.33
2018-04-10T00:24:45.932Z,37.13
2018-04-10T00:27:15.147Z,36.27
2018-04-10T00:29:44.280Z,35.73
2018-04-10T00:32:13.385Z,35.80
2018-04-10T00:34:42.516Z,36.23
2018-04-10T00:37:11.628Z,34.90
2018-04-10T00:39:40.798Z,35.97
2018-04-10T00:42:09.959Z,35.37
2018-04-10T00:45:02.451Z,35.10
2018-04-10T00:47:31.575Z,35.30
2018-04-10T00:50:00.685Z,35.63
2018-04-10T00:52:29.821Z,35.00
2018-04-10T00:54:58.947Z,35.83
2018-04-10T00:57:28.043Z,34.63
2018-04-10T00:59:57.183Z,35.67
2018-04-10T01:02:26.292Z,35.00
2018-04-10T01:04:55.439Z,35.20
2018-04-10T01:07:24.560Z,35.20
2018-04-10T01:09:53.735Z,35.03
2018-04-10T01:12:22.985Z,34.50
2018-04-10T01:14:52.096Z,35.53
2018-04-10T01:17:21.187Z,35.60
2018-04-10T01:19:50.327Z,36.30
2018-04-10T01:22:19.454Z,36.60
2018-04-10T01:24:48.603Z,36.10
2018-04-10T01:27:17.773Z,36.07
2018-04-10T01:29:46.927Z,36.03
2018-04-10T01:32:16.050Z,36.03
2018-04-10T01:34:45.168Z,35.60
2018-04-10T01:37:14.322Z,36.38
2018-04-10T01:39:43.443Z,20.90
2018-04-10T01:42:12.564Z,35.63
2018-04-10T01:44:41.691Z,35.43
2018-04-10T01:47:10.791Z,35.10
2018-04-10T01:49:39.924Z,36.00
2018-04-10T01:52:09.060Z,36.37
2018-04-10T01:54:38.197Z,36.43
2018-04-10T01:57:07.308Z,35.50
2018-04-10T01:59:36.404Z,36.17
2018-04-10T02:02:05.519Z,35.23
2018-04-10T02:04:34.712Z,35.43
2018-04-10T02:07:03.875Z,35.63
2018-04-10T02:09:46.545Z,35.77
2018-04-10T02:12:15.766Z,35.38
2018-04-10T02:14:45.148Z,35.73
2018-04-10T02:17:14.345Z,35.83
2018-04-10T02:19:43.561Z,35.50
2018-04-10T02:22:12.708Z,35.63
2018-04-10T02:24:41.931Z,35.97
2018-04-10T02:27:11.117Z,35.43
2018-04-10T02:29:40.287Z,21.00
2018-04-10T02:32:09.512Z,35.42
2018-04-10T02:34:38.774Z,20.50
2018-04-10T02:37:07.959Z,35.40
2018-04-10T02:39:37.232Z,35.70
2018-04-10T02:42:06.440Z,36.53
2018-04-10T02:44:35.660Z,35.90
2018-04-10T02:47:04.901Z,35.40
2018-04-10T02:49:34.073Z,35.47
2018-04-10T02:52:03.248Z,35.85
2018-04-10T02:54:32.476Z,35.28
2018-04-10T02:57:01.628Z,36.97
2018-04-10T02:59:30.924Z,36.33
2018-04-10T03:02:00.086Z,36.53
2018-04-10T03:04:29.275Z,36.07
2018-04-10T03:06:58.424Z,36.63
2018-04-10T03:09:27.606Z,35.70
2018-04-10T03:11:56.773Z,36.70
2018-04-10T03:14:26.006Z,35.97
2018-04-10T03:16:55.212Z,36.00
2018-04-10T03:19:24.499Z,36.22
2018-04-10T03:21:53.882Z,37.15
2018-04-10T03:24:23.082Z,36.88
2018-04-10T03:26:52.325Z,38.73
2018-04-10T03:29:21.492Z,36.60
2018-04-10T03:31:50.666Z,36.33
2018-04-10T03:34:19.841Z,36.13
2018-04-10T03:36:49.046Z,37.00
2018-04-10T03:39:18.213Z,35.70
2018-04-10T03:41:47.450Z,36.07
2018-04-10T03:44:16.604Z,36.33
2018-04-10T03:46:45.804Z,36.67
2018-04-10T03:49:14.994Z,37.08
2018-04-10T03:51:44.223Z,36.92
2018-04-10T03:54:13.327Z,36.83
2018-04-10T03:56:42.436Z,36.92
2018-04-10T03:59:11.619Z,36.10
2018-04-10T04:01:40.786Z,35.78
2018-04-10T04:04:09.955Z,20.97
2018-04-10T04:06:39.138Z,21.17
2018-04-10T04:09:08.246Z,23.60
2018-04-10T04:11:37.387Z,21.83
2018-04-10T04:14:06.560Z,21.60
2018-04-10T04:16:41.705Z,21.40
2018-04-10T04:19:16.768Z,21.23
2018-04-10T04:21:51.905Z,36.50
2018-04-10T04:24:21.051Z,22.73
2018-04-10T04:26:50.255Z,37.22
2018-04-10T04:29:19.377Z,22.20
2018-04-10T04:31:48.470Z,22.47
2018-04-10T04:34:17.612Z,22.37
2018-04-10T04:36:46.751Z,21.97
2018-04-10T04:39:15.875Z,36.47
2018-04-10T04:41:45.049Z,22.13
2018-04-10T04:44:14.200Z,21.33
2018-04-10T04:46:43.352Z,36.97
2018-04-10T04:49:12.485Z,22.33
2018-04-10T04:51:41.622Z,37.37
2018-04-10T04:54:10.793Z,21.83
2018-04-10T04:56:40.741Z,36.57
2018-04-10T04:59:09.979Z,21.27
2018-04-10T05:01:39.116Z,35.42
2018-04-10T05:04:08.247Z,34.67
2018-04-10T05:06:37.356Z,36.03
2018-04-10T05:09:06.485Z,36.10
2018-04-10T05:11:35.616Z,37.37
2018-04-10T05:14:04.743Z,36.40
2018-04-10T05:16:33.865Z,36.80
2018-04-10T05:19:02.973Z,38.87
2018-04-10T05:21:32.088Z,38.10
2018-04-10T05:24:01.287Z,39.43
2018-04-10T05:26:30.404Z,39.67
2018-04-10T05:28:59.557Z,40.30
2018-04-10T05:31:28.679Z,39.63
2018-04-10T05:33:57.835Z,41.53
2018-04-10T05:36:27.075Z,39.63
2018-04-10T05:38:56.225Z,41.73
2018-04-10T05:41:25.377Z,40.37
2018-04-10T05:43:54.535Z,42.13
2018-04-10T05:46:23.645Z,41.80
2018-04-10T05:48:52.839Z,38.80
2018-04-10T05:51:22.037Z,40.63
2018-04-10T05:53:51.148Z,40.57
2018-04-10T05:56:20.334Z,51.50
2018-04-10T05:58:49.629Z,41.10
2018-04-10T06:01:18.885Z,38.07
2018-04-10T06:03:48.080Z,39.63
2018-04-10T06:06:17.331Z,38.97
2018-04-10T06:08:46.498Z,41.27
2018-04-10T06:11:15.735Z,39.80
2018-04-10T06:13:44.918Z,39.73
2018-04-10T06:16:14.159Z,39.93
2018-04-10T06:18:43.396Z,39.57
2018-04-10T06:21:12.728Z,40.30
2018-04-10T06:23:41.884Z,39.60
2018-04-10T06:26:11.136Z,40.27
2018-04-10T06:28:40.316Z,41.13
2018-04-10T06:31:09.481Z,41.63
2018-04-10T06:33:38.639Z,42.30
2018-04-10T06:36:07.823Z,41.37
2018-04-10T06:38:37.043Z,40.80
2018-04-10T06:41:06.193Z,41.53
2018-04-10T06:43:35.356Z,38.03
2018-04-10T06:46:04.780Z,37.67
2018-04-10T06:48:33.975Z,36.70
2018-04-10T06:51:03.140Z,36.13
2018-04-10T06:53:32.385Z,34.10
2018-04-10T06:56:01.587Z,35.40
2018-04-10T06:58:30.740Z,35.27
2018-04-10T07:00:59.920Z,34.10
2018-04-10T07:03:29.062Z,33.30
2018-04-10T07:05:58.331Z,33.87
2018-04-10T07:08:27.479Z,33.07
2018-04-10T07:10:56.631Z,33.73
2018-04-10T07:13:25.823Z,32.63
2018-04-10T07:15:54.964Z,35.63
2018-04-10T07:18:24.246Z,33.60
2018-04-10T07:20:53.421Z,35.17
2018-04-10T07:23:22.556Z,38.30
2018-04-10T07:25:51.710Z,35.93
2018-04-10T07:28:20.879Z,33.23
2018-04-10T07:30:50.107Z,33.20
2018-04-10T07:33:19.266Z,32.13
2018-04-10T07:35:48.499Z,33.60
2018-04-10T07:38:17.626Z,33.97
2018-04-10T07:40:46.792Z,32.20
2018-04-10T07:43:16.034Z,32.47
2018-04-10T07:45:45.337Z,32.23
2018-04-10T07:48:14.557Z,32.43
2018-04-10T07:50:43.933Z,32.57
2018-04-10T07:53:13.235Z,33.47
2018-04-10T07:55:42.640Z,33.70
2018-04-10T07:58:11.837Z,33.50
2018-04-10T08:00:41.096Z,31.67
2018-04-10T08:03:10.324Z,32.17
2018-04-10T08:05:39.644Z,31.67
2018-04-10T08:08:09.008Z,31.13
2018-04-10T08:10:38.210Z,30.07
2018-04-10T08:13:07.398Z,29.90
2018-04-10T08:15:36.535Z,29.77
2018-04-10T08:18:05.807Z,32.33
2018-04-10T08:20:35.209Z,32.03
2018-04-10T08:23:04.512Z,31.63
2018-04-10T08:25:33.721Z,31.40
2018-04-10T08:28:02.902Z,31.17
2018-04-10T08:30:32.189Z,29.97
2018-04-10T08:33:01.337Z,31.70
2018-04-10T08:35:30.510Z,29.33
2018-04-10T08:37:59.825Z,31.37
2018-04-10T08:40:28.995Z,31.60
2018-04-10T08:42:58.183Z,32.67
2018-04-10T08:45:27.419Z,31.20
2018-04-10T08:47:56.662Z,32.87
2018-04-10T08:50:25.879Z,30.73
2018-04-10T08:52:55.115Z,33.50
2018-04-10T08:55:24.336Z,31.60
2018-04-10T08:57:53.504Z,30.73
2018-04-10T09:00:22.695Z,31.03
2018-04-10T09:02:51.936Z,32.17
2018-04-10T09:05:21.087Z,30.63
2018-04-10T09:07:50.392Z,29.57
2018-04-10T09:10:19.550Z,29.47
2018-04-10T09:12:48.737Z,29.70
2018-04-10T09:15:17.934Z,28.17
2018-04-10T09:17:47.140Z,28.83
2018-04-10T09:20:16.321Z,28.67
2018-04-10T09:22:45.487Z,28.90
2018-04-10T09:25:14.832Z,28.43
2018-04-10T09:27:44.110Z,27.20
2018-04-10T09:30:13.332Z,30.87
2018-04-10T09:32:42.561Z,27.80
2018-04-10T09:35:11.833Z,29.70
2018-04-10T09:37:41.082Z,27.73
2018-04-10T09:40:10.790Z,29.40
2018-04-10T09:42:40.043Z,28.40
2018-04-10T09:45:09.393Z,28.83
2018-04-10T09:47:38.648Z,29.53
2018-04-10T09:50:07.927Z,29.60
2018-04-10T09:52:37.150Z,28.77
2018-04-10T09:55:06.596Z,30.17
2018-04-10T09:57:35.895Z,30.73
2018-04-10T10:00:05.293Z,29.00
2018-04-10T10:02:34.520Z,31.93
2018-04-10T10:05:03.893Z,28.60
2018-04-10T10:07:33.072Z,30.00
2018-04-10T10:10:03.382Z,28.27
2018-04-10T10:12:32.545Z,31.33
2018-04-10T10:15:01.903Z,39.90
2018-04-10T10:17:31.188Z,29.83
2018-04-10T10:20:00.494Z,29.93
2018-04-10T10:22:29.783Z,31.50
2018-04-10T10:24:59.019Z,34.90
2018-04-10T10:27:28.217Z,38.07
2018-04-10T10:29:57.439Z,37.03
2018-04-10T10:32:26.730Z,32.23
2018-04-10T10:34:55.889Z,29.47
2018-04-10T10:37:25.116Z,29.27
2018-04-10T10:39:54.390Z,31.57
2018-04-10T10:42:23.547Z,32.37
2018-04-10T10:44:54.630Z,29.67
2018-04-10T10:47:24.066Z,31.60
2018-04-10T10:49:53.265Z,30.83
2018-04-10T10:52:22.627Z,32.27
2018-04-10T10:54:51.941Z,30.77
2018-04-10T10:57:21.275Z,29.13
2018-04-10T10:59:50.545Z,29.90
2018-04-10T11:02:19.710Z,29.40
2018-04-10T11:04:48.942Z,29.27
2018-04-10T11:07:18.145Z,28.80
2018-04-10T11:09:47.346Z,28.90
2018-04-10T11:12:16.542Z,29.07
2018-04-10T11:14:45.754Z,29.77
2018-04-10T11:17:16.319Z,33.40
2018-04-10T11:19:45.564Z,32.17
2018-04-10T11:22:14.924Z,33.70
2018-04-10T11:24:44.166Z,36.10
2018-04-10T11:27:13.396Z,36.53
2018-04-10T11:29:42.657Z,29.30
2018-04-10T11:32:11.886Z,32.93
2018-04-10T11:34:41.013Z,32.40
2018-04-10T11:37:10.180Z,32.93
2018-04-10T11:39:39.399Z,34.20
2018-04-10T11:42:08.591Z,33.77
2018-04-10T11:44:37.801Z,26.77
2018-04-10T11:47:06.947Z,30.23
2018-04-10T11:49:36.119Z,31.07
2018-04-10T11:52:05.307Z,28.92
2018-04-10T11:54:34.481Z,30.90
2018-04-10T11:57:03.697Z,26.98
2018-04-10T11:59:32.856Z,25.23
2018-04-10T12:02:02.003Z,32.38
2018-04-10T12:04:31.224Z,30.13
2018-04-10T12:07:00.352Z,33.00
2018-04-10T12:09:29.550Z,28.60
2018-04-10T12:11:58.699Z,30.40
2018-04-10T12:14:27.816Z,28.57
2018-04-10T12:16:56.945Z,30.53
2018-04-10T12:19:26.128Z,28.20
2018-04-10T12:21:55.243Z,27.83
2018-04-10T12:24:24.332Z,27.30
2018-04-10T12:26:53.476Z,29.40
2018-04-10T12:29:22.638Z,30.67
2018-04-10T12:31:51.832Z,27.40
2018-04-10T12:34:20.988Z,26.70
2018-04-10T12:36:50.183Z,29.30
2018-04-10T12:39:19.368Z,28.70
2018-04-10T12:41:48.526Z,28.10
2018-04-10T12:44:17.926Z,27.43
2018-04-10T12:46:47.179Z,27.17
2018-04-10T12:49:16.534Z,28.67
2018-04-10T12:51:46.143Z,29.37
2018-04-10T12:54:15.322Z,32.20
2018-04-10T12:56:44.529Z,29.40
2018-04-10T12:59:13.739Z,29.97
2018-04-10T13:01:42.940Z,29.70
2018-04-10T13:04:12.137Z,28.50
2018-04-10T13:06:41.379Z,28.37
2018-04-10T13:09:10.636Z,29.40
2018-04-10T13:11:39.850Z,32.23
2018-04-10T13:14:09.059Z,29.87
2018-04-10T13:16:38.343Z,31.13
2018-04-10T13:19:07.519Z,31.53
2018-04-10T13:21:36.717Z,30.67
2018-04-10T13:24:05.972Z,30.43
2018-04-10T13:26:35.222Z,32.93
2018-04-10T13:29:04.432Z,32.90
2018-04-10T13:31:33.695Z,33.17
2018-04-10T13:34:03.027Z,35.20
2018-04-10T13:36:32.323Z,36.10
2018-04-10T13:39:01.429Z,37.80
2018-04-10T13:41:30.658Z,36.67
2018-04-10T13:44:00.028Z,32.53
2018-04-10T13:46:29.154Z,30.27
2018-04-10T13:48:58.304Z,31.57
2018-04-10T13:51:27.533Z,30.77
2018-04-10T13:53:56.640Z,31.97
2018-04-10T13:56:25.815Z,30.63
2018-04-10T13:58:55.000Z,32.20
2018-04-10T14:01:24.217Z,31.13
2018-04-10T14:03:53.422Z,32.83
2018-04-10T14:06:22.812Z,32.17
2018-04-10T14:08:51.922Z,32.90
2018-04-10T14:11:21.063Z,31.47
2018-04-10T14:13:50.254Z,32.63
2018-04-10T14:16:19.403Z,31.77
2018-04-10T14:18:48.553Z,32.43
2018-04-10T14:21:17.743Z,31.40
2018-04-10T14:23:46.875Z,31.87
2018-04-10T14:26:16.051Z,32.63
2018-04-10T14:28:45.316Z,32.40
2018-04-10T14:31:15.296Z,32.13
2018-04-10T14:33:44.616Z,31.20
2018-04-10T14:36:13.732Z,31.47
2018-04-10T14:38:42.864Z,32.20
2018-04-10T14:41:12.104Z,31.60
2018-04-10T14:43:41.297Z,32.77
2018-04-10T14:46:10.724Z,33.00
2018-04-10T14:48:39.928Z,34.20
2018-04-10T14:51:09.211Z,33.60
2018-04-10T14:53:38.496Z,32.37
2018-04-10T14:56:07.684Z,34.10
2018-04-10T14:58:36.922Z,36.73
2018-04-10T15:01:06.136Z,44.40
2018-04-10T15:03:35.260Z,36.67
2018-04-10T15:06:04.565Z,34.20
2018-04-10T15:08:33.757Z,34.37
2018-04-10T15:11:02.904Z,33.07
2018-04-10T15:13:32.117Z,32.33
2018-04-10T15:16:01.312Z,34.30
2018-04-10T15:18:30.496Z,28.55
2018-04-10T15:20:59.850Z,28.38
2018-04-10T15:23:29.017Z,32.00
2018-04-10T15:25:58.320Z,32.20
2018-04-10T15:28:27.488Z,29.30
2018-04-10T15:30:56.713Z,28.08
2018-04-10T15:33:25.878Z,30.05
2018-04-10T15:35:54.977Z,28.17
2018-04-10T15:38:24.278Z,28.62
2018-04-10T15:40:53.602Z,29.35
2018-04-10T15:43:22.784Z,26.90
2018-04-10T15:45:51.978Z,28.13
2018-04-10T15:48:21.204Z,30.40
2018-04-10T15:50:50.376Z,28.33
2018-04-10T15:53:19.674Z,28.15
2018-04-10T15:55:48.990Z,30.62
2018-04-10T15:58:18.223Z,29.58
2018-04-10T16:00:47.474Z,29.50
2018-04-10T16:03:16.783Z,27.70
2018-04-10T16:05:45.987Z,27.60
2018-04-10T16:08:15.166Z,31.90
2018-04-10T16:10:44.463Z,31.30
2018-04-10T16:13:13.707Z,31.87
2018-04-10T16:15:42.863Z,33.67
2018-04-10T16:18:12.083Z,31.07
2018-04-10T16:20:41.267Z,32.47
2018-04-10T16:23:10.492Z,32.07
2018-04-10T16:25:39.702Z,33.17
2018-04-10T16:28:08.875Z,35.77
2018-04-10T16:30:38.073Z,33.30
2018-04-10T16:33:07.295Z,33.37
2018-04-10T16:35:36.469Z,33.17
2018-04-10T16:38:05.775Z,33.83
2018-04-10T16:40:35.098Z,32.67
2018-04-10T16:43:04.272Z,33.27
2018-04-10T16:45:33.460Z,33.90
2018-04-10T16:48:02.814Z,34.00
2018-04-10T16:50:32.069Z,34.27
2018-04-10T16:53:01.371Z,34.73
2018-04-10T16:55:30.596Z,33.13
2018-04-10T16:57:59.783Z,33.43
2018-04-10T17:00:28.995Z,34.73
2018-04-10T17:02:58.148Z,34.20
2018-04-10T17:05:27.365Z,36.80
2018-04-10T17:07:56.487Z,35.70
2018-04-10T17:10:25.592Z,33.27
2018-04-10T17:12:54.732Z,34.57
2018-04-10T17:15:23.911Z,33.13
2018-04-10T17:17:53.046Z,35.07
2018-04-10T17:20:22.181Z,34.87
2018-04-10T17:22:51.379Z,34.40
2018-04-10T17:25:20.522Z,36.63
2018-04-10T17:27:49.694Z,39.47
2018-04-10T17:30:18.929Z,41.43
2018-04-10T17:32:48.061Z,43.57
2018-04-10T17:35:17.932Z,40.80
2018-04-10T17:37:47.171Z,42.20
2018-04-10T17:40:16.511Z,39.97
2018-04-10T17:42:45.649Z,38.60
2018-04-10T17:45:14.862Z,38.73
2018-04-10T17:47:44.086Z,36.07
2018-04-10T17:50:13.310Z,37.60
2018-04-10T17:52:42.505Z,36.83
2018-04-10T17:55:11.670Z,40.07
2018-04-10T17:57:40.871Z,38.20
2018-04-10T18:00:10.070Z,39.07
2018-04-10T18:02:39.343Z,37.63
2018-04-10T18:05:08.500Z,36.80
2018-04-10T18:07:37.644Z,37.23
2018-04-10T18:10:07.719Z,35.80
2018-04-10T18:12:36.903Z,33.77
2018-04-10T18:15:06.206Z,33.80
2018-04-10T18:17:35.348Z,33.90
2018-04-10T18:20:04.515Z,34.33
2018-04-10T18:22:33.715Z,34.87
2018-04-10T18:25:02.927Z,36.77
2018-04-10T18:27:32.116Z,34.90
2018-04-10T18:30:01.329Z,33.80
2018-04-10T18:32:30.416Z,35.03
2018-04-10T18:34:59.519Z,37.30
2018-04-10T18:37:28.789Z,38.93
2018-04-10T18:39:58.008Z,38.57
2018-04-10T18:42:27.229Z,37.53
2018-04-10T18:44:56.399Z,37.57
2018-04-10T18:47:25.524Z,35.07
2018-04-10T18:49:54.907Z,37.03
2018-04-10T18:52:24.164Z,35.57
2018-04-10T18:54:53.322Z,36.73
2018-04-10T18:57:22.602Z,34.97
2018-04-10T18:59:51.804Z,38.90
2018-04-10T19:02:20.982Z,35.87
2018-04-10T19:04:50.210Z,35.30
2018-04-10T19:07:19.395Z,34.83
2018-04-10T19:09:48.779Z,35.57
2018-04-10T19:12:18.021Z,36.60
2018-04-10T19:14:47.396Z,36.43
2018-04-10T19:17:16.676Z,33.80
2018-04-10T19:19:45.941Z,35.67
2018-04-10T19:22:15.277Z,36.70
2018-04-10T19:24:44.680Z,35.63
2018-04-10T19:27:14.237Z,36.00
2018-04-10T19:29:44.182Z,35.90
2018-04-10T19:32:13.644Z,37.50
2018-04-10T19:34:43.077Z,37.07
2018-04-10T19:37:12.631Z,37.43
2018-04-10T19:39:42.297Z,36.27
2018-04-10T19:42:12.197Z,37.53
2018-04-10T19:44:41.790Z,37.60
2018-04-10T19:47:14.612Z,35.10
2018-04-10T19:49:44.199Z,35.13
2018-04-10T19:52:13.745Z,35.03
2018-04-10T19:54:43.525Z,35.93
2018-04-10T19:57:13.059Z,37.17
2018-04-10T19:59:42.426Z,36.00
2018-04-10T20:02:11.759Z,36.53
2018-04-10T20:04:41.127Z,36.77
2018-04-10T20:07:10.510Z,36.03
2018-04-10T20:09:39.716Z,34.03
2018-04-10T20:12:08.963Z,34.67
2018-04-10T20:14:38.231Z,34.93
2018-04-10T20:17:07.420Z,34.27
2018-04-10T20:19:36.724Z,34.17
2018-04-10T20:22:05.924Z,34.10
2018-04-10T20:24:35.264Z,35.03
2018-04-10T20:27:04.415Z,35.70
2018-04-10T20:29:33.618Z,36.00
2018-04-10T20:32:02.803Z,36.03
2018-04-10T20:34:32.106Z,36.00
2018-04-10T20:37:01.320Z,37.43
2018-04-10T20:39:30.626Z,36.33
2018-04-10T20:41:59.807Z,36.37
2018-04-10T20:44:29.226Z,34.47
2018-04-10T20:46:58.355Z,35.00
2018-04-10T20:49:27.800Z,35.27
2018-04-10T20:51:58.049Z,35.57
2018-04-10T20:54:27.256Z,33.60
2018-04-10T20:56:56.414Z,34.43
2018-04-10T20:59:25.644Z,32.97
2018-04-10T21:01:55.054Z,33.57
2018-04-10T21:04:24.347Z,33.03
2018-04-10T21:06:53.651Z,33.53
2018-04-10T21:09:23.052Z,34.13
2018-04-10T21:11:52.219Z,32.87
2018-04-10T21:14:21.550Z,32.97
2018-04-10T21:16:50.967Z,35.27
2018-04-10T21:19:20.382Z,33.83
2018-04-10T21:21:49.765Z,34.30
2018-04-10T21:24:19.158Z,34.88
2018-04-10T21:26:48.390Z,35.30
2018-04-10T21:29:17.832Z,31.80
2018-04-10T21:31:46.971Z,42.20
2018-04-10T21:34:16.370Z,34.73
2018-04-10T21:36:45.755Z,34.60
2018-04-10T21:39:15.076Z,33.85
2018-04-10T21:41:44.375Z,33.50
2018-04-10T21:44:13.677Z,34.53
2018-04-10T21:46:42.929Z,32.73
2018-04-10T21:49:12.037Z,33.27
2018-04-10T21:51:41.213Z,33.77
2018-04-10T21:54:10.329Z,34.00
2018-04-10T21:56:39.448Z,34.73
2018-04-10T21:59:08.608Z,34.37
2018-04-10T22:01:37.808Z,33.87
2018-04-10T22:04:06.946Z,31.87
2018-04-10T22:06:36.098Z,33.53
2018-04-10T22:09:05.347Z,32.70
2018-04-10T22:11:34.893Z,32.80
2018-04-10T22:14:04.083Z,33.50
2018-04-10T22:16:33.244Z,33.27
2018-04-10T22:19:02.360Z,33.93
2018-04-10T22:21:31.543Z,34.53
2018-04-10T22:24:00.670Z,35.13
2018-04-10T22:26:29.906Z,32.87
2018-04-10T22:28:59.120Z,32.97
2018-04-10T22:31:28.468Z,33.77
2018-04-10T22:33:57.554Z,33.27
2018-04-10T22:36:26.701Z,32.63
2018-04-10T22:38:55.840Z,33.87
2018-04-10T22:41:25.070Z,32.70
2018-04-10T22:43:54.160Z,33.57
2018-04-10T22:46:23.312Z,33.73
2018-04-10T22:48:52.514Z,33.87
2018-04-10T22:51:21.707Z,35.00
2018-04-10T22:53:50.921Z,35.27
2018-04-10T22:56:20.091Z,33.07
2018-04-10T22:58:49.202Z,31.70
2018-04-10T23:01:18.348Z,33.27
2018-04-10T23:03:47.504Z,42.77
2018-04-10T23:06:16.637Z,32.37
2018-04-10T23:08:45.775Z,33.73
2018-04-10T23:11:14.910Z,33.20
2018-04-10T23:13:44.063Z,32.70
2018-04-10T23:16:13.223Z,32.80
2018-04-10T23:18:42.332Z,33.60
2018-04-10T23:21:11.458Z,31.77
2018-04-10T23:23:40.652Z,32.37
2018-04-10T23:26:09.820Z,31.37
2018-04-10T23:28:38.967Z,31.80
2018-04-10T23:31:08.087Z,32.13
2018-04-10T23:33:37.316Z,32.43
2018-04-10T23:36:06.489Z,33.67
2018-04-10T23:38:35.660Z,30.97
2018-04-10T23:41:04.842Z,32.10
2018-04-10T23:43:33.992Z,31.47
2018-04-10T23:46:03.132Z,31.93
2018-04-10T23:48:32.334Z,31.87
2018-04-10T23:51:01.519Z,32.60
2018-04-10T23:53:30.630Z,32.50
2018-04-10T23:55:59.758Z,33.43
2018-04-10T23:58:28.923Z,34.87
